Corvallis Municipal Airport
KCVO : rendu visible

Aérodrome :











RETROUVEZ-NOUS SUR...

 
LOGIN :

S'inscrire | Disclaimer

   EN    FR    IT 

 









Légende :    VFR   VFR Marginal   IFR   IFR Intensif   IFR Très Intensif
Visi : 
Plafond : 
>= 8 km
>= 3000ft
5 à 8 km
1000 à 3000 ft
1500m à 5 km
500 à 1000 ft
800 à 1500m
200 à 500 ft
< 800m
< 200 ft
Symboles :   Orages  Brouillard  Fortes neiges  Fortes précipitations  Vent > 20 kt






- Altitude de l'aérodrome : 250 ft


KCVO - Corvallis Municipal

DERNIER METAR :
  • 071356Z AUTO 00000KT 10SM CLR 04/03 A3021 RMK AO2 SLP231 T00390028

METARs EXPIRÉS :
  • 071330Z AUTO 29005KT 10SM SCT022 04/03 A3020 RMK AO2
  • 071256Z AUTO 00000KT 10SM BKN022 06/04 A3019 RMK AO2 SLP226 T00560039
  • 071156Z AUTO 32009KT 10SM CLR 06/04 A3017 RMK AO2 SLP220 T00560039 10078 20056 53006

TAF N/A



MET'MAP, la Météo Aéronautique d'un coup d'oeil ! - Copyright ORBIFLY Décembre 2007 - Disclaimer

ORBIFLY MET'MAP TEAM :

Programmation & Développement : Alexandra Zaïnal
Sur une idée originale de : Baudouin d'Aumeries
Assistance à la programmation : Marc-Olivier Méhu
Soutien technique & logistique : Manuel Goepfert

Contact : metmap@orbifly.com




SOURCES & CREDITS :

   NOAA       Earth
Advisory